createdAt,value
2018-07-15T00:00:37.221Z,20.40
2018-07-15T00:03:05.500Z,20.30
2018-07-15T00:05:33.675Z,20.30
2018-07-15T00:08:01.868Z,20.40
2018-07-15T00:10:30.528Z,20.40
2018-07-15T00:12:58.692Z,20.40
2018-07-15T00:15:26.859Z,20.40
2018-07-15T00:17:55.018Z,20.30
2018-07-15T00:20:23.182Z,20.30
2018-07-15T00:22:51.331Z,20.30
2018-07-15T00:25:19.513Z,20.30
2018-07-15T00:27:47.687Z,20.50
2018-07-15T00:30:15.855Z,20.50
2018-07-15T00:32:44.013Z,20.50
2018-07-15T00:35:12.188Z,20.30
2018-07-15T00:37:40.340Z,20.30
2018-07-15T00:40:08.719Z,20.30
2018-07-15T00:42:36.930Z,20.30
2018-07-15T00:45:05.100Z,20.30
2018-07-15T00:47:33.278Z,20.30
2018-07-15T00:50:01.446Z,20.30
2018-07-15T00:52:29.609Z,20.30
2018-07-15T00:54:57.781Z,20.30
2018-07-15T00:57:25.943Z,20.30
2018-07-15T00:59:54.114Z,20.30
2018-07-15T01:02:22.346Z,20.30
2018-07-15T01:04:50.523Z,20.30
2018-07-15T01:07:18.723Z,20.30
2018-07-15T01:09:46.919Z,20.30
2018-07-15T01:12:15.074Z,20.30
2018-07-15T01:14:43.242Z,20.40
2018-07-15T01:17:11.431Z,20.40
2018-07-15T01:19:40.221Z,20.30
2018-07-15T01:22:08.385Z,20.30
2018-07-15T01:24:36.533Z,20.20
2018-07-15T01:27:04.751Z,20.20
2018-07-15T01:29:32.900Z,20.10
2018-07-15T01:32:01.092Z,20.00
2018-07-15T01:34:29.375Z,20.00
2018-07-15T01:36:57.551Z,20.00
2018-07-15T01:39:25.700Z,19.90
2018-07-15T01:41:53.877Z,19.90
2018-07-15T01:44:22.027Z,19.90
2018-07-15T01:46:50.199Z,20.00
2018-07-15T01:49:18.367Z,20.10
2018-07-15T01:51:46.528Z,20.10
2018-07-15T01:54:14.680Z,20.10
2018-07-15T01:56:42.903Z,20.00
2018-07-15T01:59:11.054Z,20.00
2018-07-15T02:01:39.235Z,20.00
2018-07-15T02:04:13.952Z,19.90
2018-07-15T02:06:42.120Z,19.90
2018-07-15T02:09:10.284Z,19.80
2018-07-15T02:11:38.460Z,19.90
2018-07-15T02:14:06.781Z,19.90
2018-07-15T02:16:34.996Z,19.90
2018-07-15T02:19:03.205Z,20.00
2018-07-15T02:21:31.380Z,19.90
2018-07-15T02:23:59.531Z,19.90
2018-07-15T02:26:27.695Z,19.90
2018-07-15T02:28:55.856Z,19.90
2018-07-15T02:31:24.041Z,19.90
2018-07-15T02:33:52.191Z,19.90
2018-07-15T02:36:20.370Z,19.80
2018-07-15T02:38:48.544Z,19.90
2018-07-15T02:41:16.717Z,19.80
2018-07-15T02:43:44.880Z,19.80
2018-07-15T02:46:13.061Z,19.80
2018-07-15T02:48:41.217Z,19.80
2018-07-15T02:51:09.356Z,19.70
2018-07-15T02:53:37.612Z,19.70
2018-07-15T02:56:06.043Z,19.80
2018-07-15T02:58:34.261Z,19.90
2018-07-15T03:01:02.442Z,19.90
2018-07-15T03:03:30.627Z,19.80
2018-07-15T03:05:58.808Z,19.80
2018-07-15T03:08:26.997Z,19.70
2018-07-15T03:10:55.163Z,19.80
2018-07-15T03:13:23.357Z,19.90
2018-07-15T03:15:51.517Z,19.90
2018-07-15T03:18:19.712Z,19.80
2018-07-15T03:20:47.904Z,19.80
2018-07-15T03:23:16.083Z,19.80
2018-07-15T03:25:44.272Z,19.90
2018-07-15T03:28:12.460Z,19.90
2018-07-15T03:30:40.635Z,19.80
2018-07-15T03:33:08.822Z,19.90
2018-07-15T03:35:37.008Z,20.00
2018-07-15T03:38:05.204Z,20.00
2018-07-15T03:43:07.878Z,19.80
2018-07-15T03:45:36.070Z,19.80
2018-07-15T03:48:04.421Z,19.70
2018-07-15T03:50:32.645Z,19.80
2018-07-15T03:53:00.841Z,19.80
2018-07-15T03:55:29.026Z,19.90
2018-07-15T03:57:57.271Z,19.70
2018-07-15T04:00:25.454Z,19.70
2018-07-15T04:02:53.640Z,19.70
2018-07-15T04:05:21.827Z,19.70
2018-07-15T04:07:50.011Z,19.70
2018-07-15T04:10:18.242Z,19.60
2018-07-15T04:12:46.440Z,19.60
2018-07-15T04:15:14.667Z,19.70
2018-07-15T04:17:42.876Z,19.70
2018-07-15T04:20:11.092Z,19.70
2018-07-15T04:22:39.271Z,19.70
2018-07-15T04:25:07.503Z,19.70
2018-07-15T04:27:35.700Z,19.70
2018-07-15T04:30:03.895Z,19.70
2018-07-15T04:32:32.073Z,19.70
2018-07-15T04:35:00.255Z,19.70
2018-07-15T04:37:28.448Z,19.80
2018-07-15T04:39:56.633Z,19.80
2018-07-15T04:42:24.819Z,19.80
2018-07-15T04:44:53.005Z,19.70
2018-07-15T04:47:21.211Z,19.80
2018-07-15T04:49:49.432Z,19.80
2018-07-15T04:52:17.605Z,19.70
2018-07-15T04:54:45.801Z,19.70
2018-07-15T04:57:13.999Z,19.70
2018-07-15T04:59:42.208Z,19.80
2018-07-15T05:02:10.497Z,19.80
2018-07-15T05:04:38.629Z,19.80
2018-07-15T05:07:06.821Z,19.80
2018-07-15T05:09:35.001Z,19.80
2018-07-15T05:12:03.206Z,19.80
2018-07-15T05:14:31.404Z,19.70
2018-07-15T05:16:59.600Z,19.60
2018-07-15T05:19:30.773Z,19.60
2018-07-15T05:21:58.959Z,19.60
2018-07-15T05:24:27.148Z,19.50
2018-07-15T05:26:55.365Z,19.50
2018-07-15T05:29:23.566Z,19.60
2018-07-15T05:31:51.726Z,19.50
2018-07-15T05:34:19.924Z,19.70
2018-07-15T05:36:48.109Z,19.60
2018-07-15T05:39:16.304Z,19.60
2018-07-15T05:41:44.492Z,19.60
2018-07-15T05:44:12.896Z,19.70
2018-07-15T05:46:41.460Z,19.70
2018-07-15T05:49:09.713Z,19.70
2018-07-15T05:51:37.921Z,19.60
2018-07-15T05:54:06.111Z,19.60
2018-07-15T05:56:34.381Z,19.60
2018-07-15T05:59:02.576Z,19.60
2018-07-15T06:01:30.784Z,19.70
2018-07-15T06:03:58.983Z,19.80
2018-07-15T06:06:27.195Z,19.70
2018-07-15T06:08:55.371Z,19.80
2018-07-15T06:11:23.600Z,19.80
2018-07-15T06:13:51.806Z,19.80
2018-07-15T06:16:20.032Z,19.80
2018-07-15T06:18:48.231Z,19.90
2018-07-15T06:21:16.434Z,20.00
2018-07-15T06:23:44.642Z,20.20
2018-07-15T06:26:12.836Z,20.30
2018-07-15T06:28:41.019Z,20.40
2018-07-15T06:31:09.226Z,20.60
2018-07-15T06:33:37.416Z,20.80
2018-07-15T06:36:05.783Z,21.00
2018-07-15T06:38:33.967Z,21.10
2018-07-15T06:41:02.181Z,21.20
2018-07-15T06:43:30.380Z,21.30
2018-07-15T06:45:58.576Z,21.50
2018-07-15T06:48:26.768Z,21.90
2018-07-15T06:50:54.956Z,22.80
2018-07-15T06:53:23.178Z,23.60
2018-07-15T06:55:51.435Z,24.30
2018-07-15T06:58:19.542Z,24.90
2018-07-15T07:00:47.722Z,25.00
2018-07-15T07:03:15.879Z,25.10
2018-07-15T07:05:44.049Z,25.00
2018-07-15T07:08:12.221Z,24.90
2018-07-15T07:10:40.398Z,25.00
2018-07-15T07:13:08.756Z,25.00
2018-07-15T07:15:36.910Z,25.10
2018-07-15T07:18:05.066Z,25.10
2018-07-15T07:20:33.253Z,25.00
2018-07-15T07:23:01.425Z,25.10
2018-07-15T07:25:29.584Z,25.40
2018-07-15T07:27:57.772Z,25.60
2018-07-15T07:30:25.943Z,25.50
2018-07-15T07:32:54.115Z,25.50
2018-07-15T07:35:28.852Z,25.40
2018-07-15T07:37:56.896Z,25.40
2018-07-15T07:40:25.071Z,25.50
2018-07-15T07:42:53.286Z,25.60
2018-07-15T07:45:21.478Z,25.70
2018-07-15T07:47:49.664Z,25.80
2018-07-15T07:50:17.928Z,26.00
2018-07-15T07:52:49.170Z,26.20
2018-07-15T07:55:17.342Z,26.40
2018-07-15T07:57:45.541Z,26.80
2018-07-15T08:00:22.841Z,27.20
2018-07-15T08:02:51.045Z,27.60
2018-07-15T08:05:19.272Z,28.10
2018-07-15T08:07:47.481Z,28.60
2018-07-15T08:10:15.651Z,29.10
2018-07-15T08:12:43.843Z,29.60
2018-07-15T08:15:12.038Z,30.00
2018-07-15T08:17:40.215Z,30.40
2018-07-15T08:20:08.413Z,30.60
2018-07-15T08:22:36.642Z,30.90
2018-07-15T08:25:04.989Z,31.10
2018-07-15T08:27:33.719Z,31.00
2018-07-15T08:30:13.104Z,31.20
2018-07-15T08:32:41.364Z,31.30
2018-07-15T08:35:09.552Z,31.40
2018-07-15T08:37:37.798Z,31.20
2018-07-15T08:40:06.015Z,31.30
2018-07-15T08:42:34.244Z,31.40
2018-07-15T08:45:02.445Z,31.70
2018-07-15T08:47:30.643Z,31.90
2018-07-15T08:49:58.842Z,32.10
2018-07-15T08:52:27.096Z,32.10
2018-07-15T08:54:55.282Z,32.10
2018-07-15T08:57:23.448Z,32.20
2018-07-15T08:59:51.624Z,32.30
2018-07-15T09:02:19.780Z,32.00
2018-07-15T09:04:47.965Z,31.50
2018-07-15T09:07:16.136Z,31.50
2018-07-15T09:09:44.316Z,31.80
2018-07-15T09:12:12.524Z,31.90
2018-07-15T09:14:40.703Z,32.10
2018-07-15T09:17:08.860Z,32.40
2018-07-15T09:19:37.049Z,32.60
2018-07-15T09:22:05.388Z,32.50
2018-07-15T09:24:34.137Z,32.40
2018-07-15T09:27:02.541Z,32.70
2018-07-15T09:29:30.762Z,32.60
2018-07-15T09:31:59.395Z,32.40
2018-07-15T09:34:27.556Z,32.40
2018-07-15T09:36:55.967Z,32.50
2018-07-15T09:39:24.162Z,32.80
2018-07-15T09:41:52.308Z,32.70
2018-07-15T09:44:20.474Z,32.90
2018-07-15T09:46:48.784Z,32.70
2018-07-15T09:49:16.956Z,32.70
2018-07-15T09:51:45.113Z,32.70
2018-07-15T09:54:13.288Z,32.50
2018-07-15T09:56:41.832Z,32.40
2018-07-15T09:59:09.977Z,32.50
2018-07-15T10:01:38.271Z,32.60
2018-07-15T10:04:06.446Z,32.50
2018-07-15T10:06:34.614Z,32.50
2018-07-15T10:09:03.113Z,32.40
2018-07-15T10:11:31.291Z,32.40
2018-07-15T10:13:59.459Z,32.50
2018-07-15T10:16:28.587Z,32.90
2018-07-15T10:18:56.840Z,33.20
2018-07-15T10:21:24.910Z,33.10
2018-07-15T10:23:53.058Z,32.90
2018-07-15T10:26:21.307Z,32.90
2018-07-15T10:28:49.468Z,33.20
2018-07-15T10:31:17.647Z,33.10
2018-07-15T10:33:45.813Z,33.40
2018-07-15T10:36:13.989Z,33.50
2018-07-15T10:38:42.156Z,33.40
2018-07-15T10:41:10.331Z,33.30
2018-07-15T10:43:38.816Z,33.40
2018-07-15T10:46:07.009Z,33.60
2018-07-15T10:48:35.169Z,33.80
2018-07-15T10:51:03.354Z,33.90
2018-07-15T10:53:31.521Z,34.00
2018-07-15T10:55:59.704Z,34.10
2018-07-15T10:58:27.886Z,34.20
2018-07-15T11:00:56.138Z,34.20
2018-07-15T11:03:24.326Z,34.10
2018-07-15T11:05:52.511Z,34.40
2018-07-15T11:08:20.696Z,34.50
2018-07-15T11:10:49.053Z,34.20
2018-07-15T11:13:17.235Z,33.90
2018-07-15T11:15:45.419Z,34.00
2018-07-15T11:18:13.606Z,33.50
2018-07-15T11:20:41.843Z,33.50
2018-07-15T11:23:10.035Z,33.50
2018-07-15T11:25:38.218Z,33.50
2018-07-15T11:28:06.436Z,33.30
2018-07-15T11:30:34.809Z,33.30
2018-07-15T11:33:02.988Z,33.40
2018-07-15T11:35:31.220Z,33.10
2018-07-15T11:37:59.440Z,32.90
2018-07-15T11:40:27.633Z,33.10
2018-07-15T11:42:55.828Z,32.90
2018-07-15T11:45:24.025Z,32.60
2018-07-15T11:47:52.228Z,32.40
2018-07-15T11:50:20.423Z,32.30
2018-07-15T11:52:48.628Z,32.30
2018-07-15T11:55:16.830Z,32.10
2018-07-15T11:57:45.026Z,31.90
2018-07-15T12:00:13.209Z,31.70
2018-07-15T12:02:41.367Z,31.60
2018-07-15T12:05:09.582Z,31.70
2018-07-15T12:07:37.748Z,31.60
2018-07-15T12:10:06.297Z,31.50
2018-07-15T12:12:34.635Z,31.40
2018-07-15T12:15:02.783Z,31.50
2018-07-15T12:17:31.150Z,31.50
2018-07-15T12:19:59.326Z,31.20
2018-07-15T12:22:27.525Z,31.10
2018-07-15T12:24:55.681Z,30.90
2018-07-15T12:27:23.860Z,30.90
2018-07-15T12:29:52.023Z,30.90
2018-07-15T12:32:20.205Z,30.80
2018-07-15T12:34:48.395Z,30.80
2018-07-15T12:37:16.566Z,30.70
2018-07-15T12:39:44.747Z,30.60
2018-07-15T12:42:14.012Z,30.50
2018-07-15T12:44:42.168Z,30.50
2018-07-15T12:47:10.565Z,30.40
2018-07-15T12:49:38.753Z,30.30
2018-07-15T12:52:07.703Z,30.10
2018-07-15T12:54:35.948Z,30.10
2018-07-15T12:57:04.146Z,29.90
2018-07-15T12:59:32.346Z,29.90
2018-07-15T13:02:00.540Z,29.80
2018-07-15T13:04:28.799Z,29.80
2018-07-15T13:06:56.941Z,29.80
2018-07-15T13:09:25.224Z,29.80
2018-07-15T13:11:53.391Z,29.90
2018-07-15T13:14:21.591Z,29.90
2018-07-15T13:16:49.774Z,30.10
2018-07-15T13:19:17.986Z,30.00
2018-07-15T13:21:46.167Z,30.10
2018-07-15T13:24:14.363Z,29.90
2018-07-15T13:26:42.594Z,29.80
2018-07-15T13:29:10.814Z,29.80
2018-07-15T13:31:39.171Z,29.80
2018-07-15T13:34:07.397Z,29.80
2018-07-15T13:36:35.544Z,29.70
2018-07-15T13:39:04.660Z,29.70
2018-07-15T13:41:32.891Z,29.50
2018-07-15T13:44:01.017Z,29.50
2018-07-15T13:46:29.254Z,29.50
2018-07-15T13:48:57.441Z,29.40
2018-07-15T13:51:25.635Z,29.30
2018-07-15T13:53:53.868Z,29.20
2018-07-15T13:56:22.083Z,29.20
2018-07-15T13:58:50.350Z,29.20
2018-07-15T14:01:18.592Z,29.30
2018-07-15T14:03:46.808Z,29.20
2018-07-15T14:06:15.040Z,29.30
2018-07-15T14:08:43.220Z,29.20
2018-07-15T14:11:11.411Z,29.10
2018-07-15T14:13:39.609Z,29.00
2018-07-15T14:16:07.801Z,29.00
2018-07-15T14:18:35.986Z,29.00
2018-07-15T14:21:07.036Z,29.00
2018-07-15T14:23:36.083Z,29.00
2018-07-15T14:26:04.485Z,29.10
2018-07-15T14:28:33.324Z,29.00
2018-07-15T14:31:01.522Z,29.00
2018-07-15T14:33:29.716Z,29.00
2018-07-15T14:35:57.912Z,29.00
2018-07-15T14:38:26.087Z,29.10
2018-07-15T14:40:54.285Z,29.10
2018-07-15T14:43:22.472Z,29.10
2018-07-15T14:45:51.030Z,29.10
2018-07-15T14:48:19.228Z,29.10
2018-07-15T14:50:47.427Z,29.30
2018-07-15T14:53:15.622Z,29.40
2018-07-15T14:55:43.829Z,29.40
2018-07-15T14:58:12.116Z,29.30
2018-07-15T15:00:40.311Z,29.20
2018-07-15T15:03:08.492Z,29.10
2018-07-15T15:05:36.679Z,29.10
2018-07-15T15:08:04.950Z,29.10
2018-07-15T15:10:33.240Z,29.10
2018-07-15T15:13:01.912Z,29.10
2018-07-15T15:15:30.219Z,29.10
2018-07-15T15:18:01.396Z,29.00
2018-07-15T15:20:29.578Z,29.00
2018-07-15T15:22:57.880Z,29.00
2018-07-15T15:25:26.105Z,28.90
2018-07-15T15:27:54.378Z,28.80
2018-07-15T15:30:22.563Z,28.80
2018-07-15T15:32:51.008Z,28.70
2018-07-15T15:35:19.287Z,28.60
2018-07-15T15:37:47.726Z,28.40
2018-07-15T15:40:15.920Z,28.30
2018-07-15T15:42:44.131Z,28.30
2018-07-15T15:45:12.334Z,28.20
2018-07-15T15:47:41.291Z,28.10
2018-07-15T15:50:09.852Z,28.00
2018-07-15T15:52:38.048Z,27.90
2018-07-15T15:55:06.490Z,27.90
2018-07-15T15:57:34.703Z,27.90
2018-07-15T16:00:02.941Z,27.80
2018-07-15T16:02:31.137Z,27.70
2018-07-15T16:04:59.353Z,27.70
2018-07-15T16:07:27.560Z,27.60
2018-07-15T16:09:55.725Z,27.50
2018-07-15T16:12:23.936Z,27.50
2018-07-15T16:14:52.097Z,27.30
2018-07-15T16:17:20.328Z,27.30
2018-07-15T16:19:48.697Z,27.20
2018-07-15T16:22:16.875Z,27.10
2018-07-15T16:24:45.074Z,27.00
2018-07-15T16:27:13.288Z,26.90
2018-07-15T16:29:41.519Z,26.70
2018-07-15T16:32:09.693Z,26.50
2018-07-15T16:34:38.216Z,26.40
2018-07-15T16:37:06.421Z,26.30
2018-07-15T16:39:34.595Z,26.00
2018-07-15T16:42:02.766Z,25.80
2018-07-15T16:44:31.234Z,25.60
2018-07-15T16:46:59.986Z,25.40
2018-07-15T16:49:28.228Z,25.20
2018-07-15T16:51:56.389Z,25.10
2018-07-15T16:54:24.592Z,24.90
2018-07-15T16:56:52.807Z,24.70
2018-07-15T16:59:27.308Z,24.50
2018-07-15T17:01:55.482Z,24.30
2018-07-15T17:04:23.669Z,24.10
2018-07-15T17:06:51.866Z,24.10
2018-07-15T17:09:20.051Z,24.20
2018-07-15T17:11:51.228Z,24.00
2018-07-15T17:14:19.449Z,23.80
2018-07-15T17:16:47.622Z,23.50
2018-07-15T17:19:15.802Z,23.30
2018-07-15T17:21:43.984Z,23.10
2018-07-15T17:24:12.175Z,22.90
2018-07-15T17:26:40.341Z,22.80
2018-07-15T17:29:08.526Z,22.70
2018-07-15T17:31:36.706Z,22.50
2018-07-15T17:34:04.954Z,22.50
2018-07-15T17:36:33.148Z,22.40
2018-07-15T17:39:01.367Z,22.40
2018-07-15T17:41:29.604Z,22.30
2018-07-15T17:43:57.800Z,22.30
2018-07-15T17:46:25.985Z,22.30
2018-07-15T17:48:54.223Z,22.30
2018-07-15T17:51:22.399Z,22.40
2018-07-15T17:53:50.588Z,22.20
2018-07-15T17:56:18.775Z,22.20
2018-07-15T17:58:46.989Z,22.00
2018-07-15T18:01:15.161Z,22.00
2018-07-15T18:03:43.344Z,21.90
2018-07-15T18:06:11.519Z,22.00
2018-07-15T18:08:39.695Z,21.90
2018-07-15T18:11:08.206Z,21.80
2018-07-15T18:13:36.394Z,21.80
2018-07-15T18:16:04.619Z,21.80
2018-07-15T18:18:32.811Z,21.80
2018-07-15T18:21:01.013Z,21.80
2018-07-15T18:23:29.344Z,21.80
2018-07-15T18:25:57.665Z,21.70
2018-07-15T18:28:25.881Z,21.60
2018-07-15T18:30:54.180Z,21.60
2018-07-15T18:33:22.444Z,21.60
2018-07-15T18:35:50.630Z,21.50
2018-07-15T18:38:18.852Z,21.40
2018-07-15T18:40:47.062Z,21.50
2018-07-15T18:43:15.318Z,21.40
2018-07-15T18:45:43.544Z,21.40
2018-07-15T18:48:11.756Z,21.30
2018-07-15T18:50:40.013Z,21.40
2018-07-15T18:53:08.216Z,21.20
2018-07-15T18:55:36.427Z,21.10
2018-07-15T18:58:04.782Z,21.10
2018-07-15T19:00:33.086Z,21.10
2018-07-15T19:03:01.383Z,21.10
2018-07-15T19:05:29.588Z,21.10
2018-07-15T19:07:57.847Z,21.00
2018-07-15T19:10:26.141Z,20.90
2018-07-15T19:12:54.467Z,20.80
2018-07-15T19:15:22.862Z,20.70
2018-07-15T19:17:51.063Z,20.70
2018-07-15T19:20:19.251Z,20.60
2018-07-15T19:22:47.467Z,20.60
2018-07-15T19:25:15.831Z,20.60
2018-07-15T19:27:44.075Z,20.50
2018-07-15T19:30:12.277Z,20.40
2018-07-15T19:32:40.725Z,20.40
2018-07-15T19:35:08.920Z,20.30
2018-07-15T19:37:37.140Z,20.10
2018-07-15T19:40:05.705Z,20.00
2018-07-15T19:42:34.028Z,19.90
2018-07-15T19:45:02.132Z,19.80
2018-07-15T19:47:30.362Z,19.70
2018-07-15T19:49:58.537Z,19.60
2018-07-15T19:52:26.942Z,19.50
2018-07-15T19:54:55.238Z,19.50
2018-07-15T19:57:23.429Z,19.50
2018-07-15T19:59:51.587Z,19.50
2018-07-15T20:02:19.764Z,19.50
2018-07-15T20:04:47.946Z,19.50
2018-07-15T20:07:16.132Z,19.60
2018-07-15T20:09:44.329Z,19.60
2018-07-15T20:12:12.498Z,19.60
2018-07-15T20:14:40.677Z,19.70
2018-07-15T20:17:08.930Z,19.70
2018-07-15T20:19:37.099Z,19.70
2018-07-15T20:22:05.302Z,19.70
2018-07-15T20:24:33.496Z,19.70
2018-07-15T20:27:01.680Z,19.70
2018-07-15T20:29:29.869Z,19.70
2018-07-15T20:31:58.047Z,19.70
2018-07-15T20:34:26.319Z,19.70
2018-07-15T20:36:55.208Z,19.40
2018-07-15T20:39:23.388Z,19.50
2018-07-15T20:41:51.577Z,19.50
2018-07-15T20:44:19.801Z,19.50
2018-07-15T20:46:48.022Z,19.40
2018-07-15T20:49:16.188Z,19.30
2018-07-15T20:51:44.521Z,19.30
2018-07-15T20:54:12.691Z,19.20
2018-07-15T20:56:40.851Z,19.20
2018-07-15T20:59:09.043Z,19.00
2018-07-15T21:01:37.219Z,19.00
2018-07-15T21:04:05.738Z,19.00
2018-07-15T21:06:35.328Z,19.10
2018-07-15T21:09:04.741Z,19.10
2018-07-15T21:11:32.924Z,19.20
2018-07-15T21:14:01.128Z,19.10
2018-07-15T21:16:29.343Z,19.00
2018-07-15T21:18:58.534Z,19.00
2018-07-15T21:21:26.704Z,19.00
2018-07-15T21:23:54.886Z,19.00
2018-07-15T21:26:23.069Z,19.00
2018-07-15T21:28:51.267Z,19.00
2018-07-15T21:31:19.452Z,18.90
2018-07-15T21:33:47.628Z,19.00
2018-07-15T21:36:15.798Z,19.00
2018-07-15T21:38:43.956Z,19.00
2018-07-15T21:41:12.120Z,18.90
2018-07-15T21:43:40.295Z,18.90
2018-07-15T21:46:08.469Z,18.80
2018-07-15T21:48:36.638Z,18.80
2018-07-15T21:51:04.854Z,18.80
2018-07-15T21:53:33.147Z,18.80
2018-07-15T21:56:01.318Z,18.80
2018-07-15T21:58:29.516Z,18.70
2018-07-15T22:00:57.686Z,18.80
2018-07-15T22:03:26.036Z,18.80
2018-07-15T22:05:54.234Z,18.70
2018-07-15T22:08:33.545Z,18.70
2018-07-15T22:11:01.737Z,18.60
2018-07-15T22:13:29.914Z,18.60
2018-07-15T22:15:58.109Z,18.50
2018-07-15T22:18:26.278Z,18.50
2018-07-15T22:20:54.460Z,18.40
2018-07-15T22:23:22.624Z,18.40
2018-07-15T22:25:50.809Z,18.50
2018-07-15T22:28:18.971Z,18.50
2018-07-15T22:30:47.150Z,18.60
2018-07-15T22:33:15.303Z,18.50
2018-07-15T22:35:43.487Z,18.50
2018-07-15T22:38:11.649Z,18.50
2018-07-15T22:40:39.824Z,18.50
2018-07-15T22:43:08.013Z,18.40
2018-07-15T22:45:36.188Z,18.50
2018-07-15T22:48:04.361Z,18.40
2018-07-15T22:50:32.529Z,18.30
2018-07-15T22:53:00.708Z,18.30
2018-07-15T22:55:28.867Z,18.30
2018-07-15T22:57:57.065Z,18.30
2018-07-15T23:00:25.241Z,18.20
2018-07-15T23:02:53.413Z,18.20
2018-07-15T23:05:41.871Z,18.10
2018-07-15T23:08:10.359Z,18.10
2018-07-15T23:10:38.553Z,18.10
2018-07-15T23:13:07.668Z,18.00
2018-07-15T23:15:36.298Z,18.00
2018-07-15T23:18:04.471Z,18.00
2018-07-15T23:20:33.370Z,18.10
2018-07-15T23:23:02.370Z,18.10
2018-07-15T23:25:31.116Z,18.20
2018-07-15T23:27:59.984Z,18.20
2018-07-15T23:30:28.828Z,18.30
2018-07-15T23:32:57.005Z,18.40
2018-07-15T23:35:25.257Z,18.40
2018-07-15T23:37:53.427Z,18.40
2018-07-15T23:40:21.615Z,18.50
2018-07-15T23:42:50.456Z,18.40
2018-07-15T23:45:18.656Z,18.50
2018-07-15T23:47:46.832Z,18.40
2018-07-15T23:50:15.016Z,18.40
2018-07-15T23:52:43.220Z,18.40
2018-07-15T23:55:11.399Z,18.40
2018-07-15T23:57:39.598Z,18.40
